createdAt,value
2023-03-15T00:03:08.328Z,97511.00
2023-03-15T00:08:12.311Z,97514.44
2023-03-15T00:13:16.382Z,97520.72
2023-03-15T00:18:19.830Z,97530.34
2023-03-15T00:23:22.183Z,97541.53
2023-03-15T00:28:24.134Z,97549.09
2023-03-15T00:33:27.097Z,97549.44
2023-03-15T00:38:29.782Z,97547.28
2023-03-15T00:43:31.600Z,97556.09
2023-03-15T00:48:35.517Z,97567.75
2023-03-15T00:53:38.714Z,97557.03
2023-03-15T00:58:41.170Z,97570.28
2023-03-15T01:03:43.484Z,97574.56
2023-03-15T01:08:45.732Z,97577.25
2023-03-15T01:13:47.746Z,97588.44
2023-03-15T01:18:51.808Z,97592.97
2023-03-15T01:23:54.975Z,97591.09
2023-03-15T01:28:56.960Z,97597.41
2023-03-15T01:34:01.094Z,97605.28
2023-03-15T01:39:07.332Z,97600.53
2023-03-15T01:44:18.278Z,97597.69
2023-03-15T01:49:31.152Z,97596.59
2023-03-15T01:54:43.709Z,97591.25
2023-03-15T01:59:57.751Z,97596.91
2023-03-15T02:05:12.077Z,97600.53
2023-03-15T02:10:16.789Z,97600.53
2023-03-15T02:15:20.043Z,97611.88
2023-03-15T02:20:27.638Z,97610.28
2023-03-15T02:25:43.149Z,97605.41
2023-03-15T02:30:46.871Z,97613.28
2023-03-15T02:35:49.039Z,97622.13
2023-03-15T02:40:53.623Z,97630.28
2023-03-15T02:45:56.549Z,97640.84
2023-03-15T02:50:58.391Z,97643.50
2023-03-15T02:56:00.258Z,97639.72
2023-03-15T03:01:02.199Z,97648.06
2023-03-15T03:06:04.898Z,97648.50
2023-03-15T03:11:07.400Z,97664.91
2023-03-15T03:16:11.171Z,97666.94
2023-03-15T03:21:14.872Z,97684.91
2023-03-15T03:26:19.371Z,97689.13
2023-03-15T03:31:26.317Z,97696.66
2023-03-15T03:36:29.881Z,97695.25
2023-03-15T03:41:31.795Z,97707.50
2023-03-15T03:46:33.884Z,97708.72
2023-03-15T03:51:36.449Z,97718.78
2023-03-15T03:56:39.788Z,97730.69
2023-03-15T04:01:42.358Z,97732.34
2023-03-15T04:06:46.779Z,97727.94
2023-03-15T04:11:53.108Z,97730.13
2023-03-15T04:16:55.555Z,97740.81
2023-03-15T04:21:58.105Z,97746.34
2023-03-15T04:27:14.786Z,97756.09
2023-03-15T04:32:31.178Z,97772.44
2023-03-15T04:37:51.945Z,97781.47
2023-03-15T04:43:29.011Z,97781.47
2023-03-15T04:48:57.255Z,97800.06
2023-03-15T04:53:59.062Z,97806.03
2023-03-15T04:59:19.428Z,97805.94
2023-03-15T05:04:41.465Z,97819.38
2023-03-15T05:09:46.790Z,97821.00
2023-03-15T05:15:27.314Z,97830.03
2023-03-15T05:20:29.201Z,97838.22
2023-03-15T05:26:03.806Z,97848.69
2023-03-15T05:31:29.023Z,97843.91
2023-03-15T05:36:45.413Z,97860.31
2023-03-15T05:42:22.105Z,97871.97
2023-03-15T05:47:34.092Z,97884.25
2023-03-15T05:52:41.704Z,97884.13
2023-03-15T05:57:50.162Z,97904.53
2023-03-15T06:03:10.469Z,97915.47
2023-03-15T06:08:26.697Z,97923.38
2023-03-15T06:13:30.359Z,97921.16
2023-03-15T06:18:33.417Z,97928.13
2023-03-15T06:23:35.189Z,97934.41
2023-03-15T06:28:37.135Z,97943.91
2023-03-15T06:33:40.820Z,97943.50
2023-03-15T06:38:45.184Z,97948.78
2023-03-15T06:43:47.185Z,97951.06
2023-03-15T06:48:49.668Z,97961.34
2023-03-15T06:53:51.728Z,97971.97
2023-03-15T06:58:54.233Z,97972.69
2023-03-15T07:03:56.133Z,97975.28
2023-03-15T07:08:57.959Z,97979.56
2023-03-15T07:13:59.928Z,97978.00
2023-03-15T07:19:02.154Z,97977.25
2023-03-15T07:24:04.489Z,97974.22
2023-03-15T07:29:06.344Z,97978.00
2023-03-15T07:34:08.440Z,97983.38
2023-03-15T07:39:10.980Z,97989.34
2023-03-15T07:44:13.045Z,97990.41
2023-03-15T07:49:14.905Z,97984.69
2023-03-15T07:54:16.967Z,98003.94
2023-03-15T07:59:18.818Z,98002.56
2023-03-15T08:04:21.615Z,97994.06
2023-03-15T08:09:23.638Z,97999.66
2023-03-15T08:14:25.905Z,98002.81
2023-03-15T08:19:28.264Z,98005.59
2023-03-15T08:24:30.392Z,98008.94
2023-03-15T08:29:32.660Z,98015.81
2023-03-15T08:34:35.565Z,98025.50
2023-03-15T08:39:38.628Z,98017.06
2023-03-15T08:44:40.634Z,98035.72
2023-03-15T08:49:42.556Z,98040.00
2023-03-15T08:54:44.679Z,98039.09
2023-03-15T08:59:46.564Z,98049.94
2023-03-15T09:04:48.885Z,98059.63
2023-03-15T09:09:54.347Z,98076.97
2023-03-15T09:14:56.277Z,98094.38
2023-03-15T09:19:58.088Z,98086.75
2023-03-15T09:24:59.917Z,98090.19
2023-03-15T09:30:02.211Z,98080.41
2023-03-15T09:35:05.517Z,98089.47
2023-03-15T09:40:08.491Z,98086.78
2023-03-15T09:45:27.311Z,98087.56
2023-03-15T09:50:37.209Z,98088.19
2023-03-15T09:55:39.555Z,98089.41
2023-03-15T10:00:47.985Z,98096.19
2023-03-15T10:05:56.029Z,98101.91
2023-03-15T10:11:11.059Z,98117.28
2023-03-15T10:16:48.584Z,98111.88
2023-03-15T10:22:04.494Z,98114.09
2023-03-15T10:27:36.943Z,98127.03
2023-03-15T10:32:43.646Z,98124.50
2023-03-15T10:37:45.735Z,98148.38
2023-03-15T10:42:47.645Z,98128.47
2023-03-15T10:47:59.694Z,98132.25
2023-03-15T10:53:11.142Z,98129.06
2023-03-15T10:58:41.123Z,98134.13
2023-03-15T11:03:44.169Z,98145.22
2023-03-15T11:08:46.214Z,98145.53
2023-03-15T11:14:02.929Z,98148.25
2023-03-15T11:19:15.375Z,98145.88
2023-03-15T11:24:31.592Z,98142.72
2023-03-15T11:29:37.169Z,98149.50
2023-03-15T11:34:46.234Z,98152.03
2023-03-15T11:40:10.801Z,98152.81
2023-03-15T11:45:24.152Z,98156.47
2023-03-15T11:50:26.125Z,98157.41
2023-03-15T11:55:28.589Z,98151.56
2023-03-15T12:00:35.959Z,98145.88
2023-03-15T12:05:52.610Z,98146.50
2023-03-15T12:10:54.587Z,98150.25
2023-03-15T12:15:57.406Z,98141.09
2023-03-15T12:21:07.293Z,98143.28
2023-03-15T12:26:17.120Z,98141.50
2023-03-15T12:31:20.197Z,98140.63
2023-03-15T12:36:39.749Z,98138.50
2023-03-15T12:41:47.357Z,98139.94
2023-03-15T12:46:49.130Z,98155.97
2023-03-15T12:52:02.159Z,98150.03
2023-03-15T12:57:05.910Z,98153.22
2023-03-15T13:02:41.745Z,98154.88
2023-03-15T13:08:22.259Z,98157.56
2023-03-15T13:13:46.210Z,98161.34
2023-03-15T13:18:58.653Z,98156.78
2023-03-15T13:24:02.172Z,98155.34
2023-03-15T13:29:29.565Z,98167.38
2023-03-15T13:34:34.339Z,98157.69
2023-03-15T13:39:36.177Z,98170.66
2023-03-15T13:44:38.002Z,98177.72
2023-03-15T13:49:39.854Z,98171.00
2023-03-15T13:54:42.300Z,98169.13
2023-03-15T13:59:54.918Z,98167.19
2023-03-15T14:04:59.877Z,98167.63
2023-03-15T14:10:19.593Z,98174.09
2023-03-15T14:15:36.919Z,98177.09
2023-03-15T14:20:43.363Z,98175.44
2023-03-15T14:25:52.881Z,98189.03
2023-03-15T14:30:58.001Z,98178.25
2023-03-15T14:36:04.602Z,98191.78
2023-03-15T14:41:25.368Z,98186.28
2023-03-15T14:46:27.890Z,98190.13
2023-03-15T14:51:30.079Z,98194.13
2023-03-15T14:56:32.208Z,98198.00
2023-03-15T15:01:34.900Z,98195.56
2023-03-15T15:06:38.049Z,98205.28
2023-03-15T15:11:39.869Z,98197.34
2023-03-15T15:16:42.700Z,98206.94
2023-03-15T15:21:46.138Z,98204.34
2023-03-15T15:26:48.457Z,98210.31
2023-03-15T15:31:50.371Z,98219.81
2023-03-15T15:36:52.311Z,98225.16
2023-03-15T15:41:54.255Z,98223.47
2023-03-15T15:46:56.186Z,98228.22
2023-03-15T15:51:58.036Z,98233.09
2023-03-15T15:57:01.412Z,98232.78
2023-03-15T16:02:15.336Z,98236.13
2023-03-15T16:07:17.880Z,98244.19
2023-03-15T16:12:20.182Z,98247.72
2023-03-15T16:17:24.148Z,98256.16
2023-03-15T16:22:27.219Z,98272.00
2023-03-15T16:27:30.697Z,98272.50
2023-03-15T16:32:44.018Z,98281.22
2023-03-15T16:37:46.903Z,98289.94
2023-03-15T16:42:49.608Z,98298.59
2023-03-15T16:47:51.975Z,98295.69
2023-03-15T16:52:57.089Z,98314.09
2023-03-15T16:58:04.547Z,98318.69
2023-03-15T17:03:07.879Z,98332.31
2023-03-15T17:08:14.028Z,98340.66
2023-03-15T17:13:20.111Z,98335.44
2023-03-15T17:18:24.115Z,98343.69
2023-03-15T17:23:26.096Z,98353.03
2023-03-15T17:28:28.019Z,98367.72
2023-03-15T17:33:29.983Z,98375.94
2023-03-15T17:38:32.981Z,98387.13
2023-03-15T17:43:37.020Z,98395.50
2023-03-15T17:48:39.115Z,98396.88
2023-03-15T17:53:41.131Z,98404.78
2023-03-15T17:58:47.059Z,98410.75
2023-03-15T18:03:50.542Z,98426.22
2023-03-15T18:08:52.767Z,98425.44
2023-03-15T18:13:55.948Z,98440.59
2023-03-15T18:18:58.384Z,98455.13
2023-03-15T18:24:02.210Z,98455.25
2023-03-15T18:29:07.677Z,98461.34
2023-03-15T18:34:15.472Z,98460.13
2023-03-15T18:39:17.973Z,98466.16
2023-03-15T18:44:20.503Z,98466.75
2023-03-15T18:49:22.806Z,98468.38
2023-03-15T18:54:24.878Z,98473.50
2023-03-15T18:59:27.066Z,98476.78
2023-03-15T19:04:29.506Z,98478.88
2023-03-15T19:09:31.840Z,98487.50
2023-03-15T19:14:34.175Z,98489.59
2023-03-15T19:19:36.277Z,98495.41
2023-03-15T19:24:38.978Z,98502.38
2023-03-15T19:29:41.490Z,98505.66
2023-03-15T19:34:44.174Z,98513.13
2023-03-15T19:39:46.397Z,98519.91
2023-03-15T19:44:48.990Z,98534.97
2023-03-15T19:49:51.046Z,98522.28
2023-03-15T19:54:53.587Z,98538.47
2023-03-15T19:59:57.971Z,98544.13
2023-03-15T20:05:02.507Z,98551.97
2023-03-15T20:10:08.868Z,98555.34
2023-03-15T20:15:13.395Z,98560.22
2023-03-15T20:20:17.207Z,98573.91
2023-03-15T20:25:22.680Z,98564.47
2023-03-15T20:30:25.324Z,98572.03
2023-03-15T20:35:27.856Z,98576.09
2023-03-15T20:40:30.255Z,98581.03
2023-03-15T20:45:33.473Z,98594.84
2023-03-15T20:50:35.363Z,98603.66
2023-03-15T20:55:37.207Z,98606.41
2023-03-15T21:00:41.153Z,98614.75
2023-03-15T21:05:46.748Z,98623.69
2023-03-15T21:10:48.568Z,98625.09
2023-03-15T21:15:53.337Z,98622.69
2023-03-15T21:20:58.109Z,98633.59
2023-03-15T21:26:10.750Z,98630.44
2023-03-15T21:31:13.646Z,98635.59
2023-03-15T21:36:15.590Z,98637.56
2023-03-15T21:41:17.954Z,98644.91
2023-03-15T21:46:19.859Z,98647.44
2023-03-15T21:51:22.392Z,98649.03
2023-03-15T21:56:26.361Z,98651.78
2023-03-15T22:01:28.278Z,98648.38
2023-03-15T22:06:30.237Z,98660.75
2023-03-15T22:11:32.042Z,98662.56
2023-03-15T22:16:33.974Z,98673.25
2023-03-15T22:21:35.820Z,98665.53
2023-03-15T22:26:37.727Z,98664.09
2023-03-15T22:31:39.579Z,98674.78
2023-03-15T22:36:42.848Z,98678.44
2023-03-15T22:41:44.717Z,98682.78
2023-03-15T22:46:46.675Z,98687.34
2023-03-15T22:51:48.562Z,98694.53
2023-03-15T22:56:51.446Z,98689.75
2023-03-15T23:01:53.360Z,98695.19
2023-03-15T23:06:55.242Z,98700.06
2023-03-15T23:11:57.093Z,98700.00
2023-03-15T23:16:59.310Z,98700.25
2023-03-15T23:22:04.342Z,98706.00
2023-03-15T23:27:06.349Z,98710.63
2023-03-15T23:32:11.821Z,98710.00
2023-03-15T23:37:15.332Z,98706.84
2023-03-15T23:42:17.284Z,98708.00
2023-03-15T23:47:22.207Z,98714.56
2023-03-15T23:52:25.716Z,98717.69
2023-03-15T23:57:27.850Z,98723.50
